CYNL

METAR CYNL 201600Z AUTO 16005KT 8SM OVC008 09/08 A2969 RMK AO1 SLP060
METAR
LOCATION
CYNL
DATE - TIME
201600Z
WIND
160 TRUE @ 5 KNOTS
VISIBILITY
8SM
RUNWAY VISUAL RANGE
NOT REPORTED
WEATHER
CLOUDINESS
OVC008
TEMP / DEWPOINT
9 ºC / 8 ºC
ALTIMETER
29.69 in. Hg
RECENT WEATHER
NOT REPORTED
WIND SHEAR
NOT REPORTED
REMARKS
RMK AO1 SLP060
SEA LEVEL PRESSURE: hPa

CYNL

SPECI CYNL 201539Z AUTO 17005KT 9SM OVC009 09/07 A2970 RMK AO1 PRESFR SLP062
SPECI
LOCATION
CYNL
DATE - TIME
201539Z
WIND
170 TRUE @ 5 KNOTS
VISIBILITY
9SM
RUNWAY VISUAL RANGE
NOT REPORTED
WEATHER
CLOUDINESS
OVC009
TEMP / DEWPOINT
9 ºC / 7 ºC
ALTIMETER
29.70 in. Hg
RECENT WEATHER
NOT REPORTED
WIND SHEAR
NOT REPORTED
REMARKS
RMK AO1 PRESFR SLP062
SEA LEVEL PRESSURE: hPa

CYNL

SPECI CYNL 201516Z AUTO 15004KT 9SM BKN010 OVC088 09/07 A2971 RMK AO1 PRESFR SLP065
SPECI
LOCATION
CYNL
DATE - TIME
201516Z
WIND
150 TRUE @ 4 KNOTS
VISIBILITY
9SM
RUNWAY VISUAL RANGE
NOT REPORTED
WEATHER
CLOUDINESS
BKN010 OVC088
TEMP / DEWPOINT
9 ºC / 7 ºC
ALTIMETER
29.71 in. Hg
RECENT WEATHER
NOT REPORTED
WIND SHEAR
NOT REPORTED
REMARKS
RMK AO1 PRESFR SLP065
SEA LEVEL PRESSURE: hPa

Your time UTC time
 
 
Weather data provided by AXYS Technologies Inc., www.axystechnologies.com
 
Station History